createdAt,value
2023-05-23T00:01:22.778Z,4.80
2023-05-23T00:03:49.843Z,4.85
2023-05-23T00:06:21.386Z,4.35
2023-05-23T00:08:48.550Z,4.72
2023-05-23T00:11:15.492Z,4.80
2023-05-23T00:13:42.465Z,4.85
2023-05-23T00:16:12.582Z,4.63
2023-05-23T00:18:43.180Z,4.70
2023-05-23T00:21:10.177Z,5.10
2023-05-23T00:23:36.973Z,5.07
2023-05-23T00:26:03.933Z,4.93
2023-05-23T00:28:30.704Z,4.80
2023-05-23T00:30:57.514Z,4.85
2023-05-23T00:33:24.238Z,5.25
2023-05-23T00:35:50.983Z,4.85
2023-05-23T00:38:18.110Z,4.90
2023-05-23T00:40:44.911Z,4.80
2023-05-23T00:43:12.503Z,4.88
2023-05-23T00:45:39.815Z,4.80
2023-05-23T00:48:07.137Z,4.88
2023-05-23T00:50:36.284Z,4.85
2023-05-23T00:53:03.262Z,4.93
2023-05-23T00:55:30.777Z,4.57
2023-05-23T00:57:57.627Z,4.60
2023-05-23T01:00:27.224Z,4.70
2023-05-23T01:02:54.974Z,5.03
2023-05-23T01:05:25.226Z,4.53
2023-05-23T01:07:52.836Z,4.63
2023-05-23T01:10:22.399Z,5.28
2023-05-23T01:12:58.507Z,4.70
2023-05-23T01:15:41.528Z,4.63
2023-05-23T01:18:10.685Z,5.05
2023-05-23T01:20:41.928Z,4.88
2023-05-23T01:23:23.635Z,4.85
2023-05-23T01:26:02.438Z,4.90
2023-05-23T01:28:34.716Z,4.90
2023-05-23T01:31:04.298Z,4.75
2023-05-23T01:33:32.240Z,4.78
2023-05-23T01:36:02.313Z,4.97
2023-05-23T01:38:29.107Z,4.65
2023-05-23T01:40:56.024Z,4.88
2023-05-23T01:43:23.572Z,5.03
2023-05-23T01:45:54.198Z,4.60
2023-05-23T01:48:21.807Z,4.50
2023-05-23T01:50:48.789Z,4.40
2023-05-23T01:53:19.879Z,4.72
2023-05-23T01:55:47.748Z,4.97
2023-05-23T01:58:14.680Z,4.60
2023-05-23T02:00:41.509Z,4.50
2023-05-23T02:03:09.454Z,4.80
2023-05-23T02:05:36.286Z,4.75
2023-05-23T02:08:03.578Z,4.85
2023-05-23T02:10:30.486Z,4.95
2023-05-23T02:13:00.143Z,4.70
2023-05-23T02:15:28.025Z,5.10
2023-05-23T02:17:54.830Z,4.63
2023-05-23T02:20:21.645Z,4.72
2023-05-23T02:22:48.417Z,4.93
2023-05-23T02:25:15.944Z,4.95
2023-05-23T02:27:42.717Z,5.00
2023-05-23T02:30:09.971Z,4.88
2023-05-23T02:32:37.771Z,4.90
2023-05-23T02:35:06.254Z,4.88
2023-05-23T02:37:33.087Z,4.80
2023-05-23T02:39:59.870Z,4.88
2023-05-23T02:42:26.725Z,4.80
2023-05-23T02:44:53.962Z,5.18
2023-05-23T02:47:20.849Z,4.65
2023-05-23T02:49:48.636Z,4.72
2023-05-23T02:52:15.932Z,5.03
2023-05-23T02:54:42.760Z,5.05
2023-05-23T02:57:10.449Z,4.90
2023-05-23T02:59:41.210Z,4.68
2023-05-23T03:02:08.101Z,5.25
2023-05-23T03:04:35.009Z,4.75
2023-05-23T03:07:05.338Z,5.20
2023-05-23T03:09:33.977Z,5.25
2023-05-23T03:12:01.272Z,5.43
2023-05-23T03:14:28.452Z,5.13
2023-05-23T03:16:55.173Z,4.75
2023-05-23T03:19:21.891Z,5.18
2023-05-23T03:21:50.305Z,5.15
2023-05-23T03:24:18.351Z,4.97
2023-05-23T03:26:45.333Z,4.95
2023-05-23T03:29:12.343Z,5.10
2023-05-23T03:31:39.143Z,5.20
2023-05-23T03:34:05.897Z,5.13
2023-05-23T03:36:34.176Z,5.40
2023-05-23T03:39:01.068Z,4.78
2023-05-23T03:41:27.876Z,4.97
2023-05-23T03:43:56.457Z,5.07
2023-05-23T03:46:23.503Z,5.00
2023-05-23T03:48:51.424Z,5.32
2023-05-23T03:51:18.566Z,5.15
2023-05-23T03:53:45.335Z,4.75
2023-05-23T03:56:12.036Z,5.10
2023-05-23T03:58:38.891Z,4.93
2023-05-23T04:01:11.364Z,4.90
2023-05-23T04:03:38.189Z,5.20
2023-05-23T04:06:05.234Z,4.97
2023-05-23T04:08:34.129Z,5.10
2023-05-23T04:11:02.014Z,5.05
2023-05-23T04:13:33.319Z,4.90
2023-05-23T04:16:02.295Z,5.20
2023-05-23T04:18:29.118Z,5.20
2023-05-23T04:20:55.955Z,5.00
2023-05-23T04:23:22.748Z,5.10
2023-05-23T04:25:52.636Z,5.13
2023-05-23T04:28:26.684Z,5.22
2023-05-23T04:30:54.353Z,5.00
2023-05-23T04:33:25.019Z,4.95
2023-05-23T04:35:52.461Z,4.95
2023-05-23T04:38:19.590Z,5.20
2023-05-23T04:40:46.699Z,4.93
2023-05-23T04:46:14.047Z,5.25
2023-05-23T04:48:44.798Z,4.85
2023-05-23T04:51:11.824Z,5.38
2023-05-23T04:53:58.854Z,5.50
2023-05-23T04:56:28.254Z,5.30
2023-05-23T04:58:55.208Z,5.00
2023-05-23T05:01:25.564Z,5.22
2023-05-23T05:03:53.197Z,5.20
2023-05-23T05:06:21.414Z,5.05
2023-05-23T05:08:48.313Z,4.80
2023-05-23T05:11:15.675Z,5.22
2023-05-23T05:13:42.488Z,5.05
2023-05-23T05:16:09.362Z,4.97
2023-05-23T05:18:36.573Z,5.05
2023-05-23T05:21:03.486Z,5.28
2023-05-23T05:23:31.815Z,5.05
2023-05-23T05:26:00.686Z,5.30
2023-05-23T05:28:27.791Z,5.25
2023-05-23T05:30:54.800Z,5.55
2023-05-23T05:33:28.445Z,5.75
2023-05-23T05:36:07.292Z,5.63
2023-05-23T05:38:34.332Z,5.60
2023-05-23T05:41:01.257Z,5.90
2023-05-23T05:43:33.310Z,5.50
2023-05-23T05:46:00.164Z,5.40
2023-05-23T05:48:26.953Z,5.57
2023-05-23T05:50:56.044Z,5.80
2023-05-23T05:53:22.808Z,5.45
2023-05-23T05:55:50.416Z,5.72
2023-05-23T05:58:17.310Z,5.60
2023-05-23T06:00:55.111Z,5.82
2023-05-23T06:03:22.132Z,5.47
2023-05-23T06:05:54.094Z,6.00
2023-05-23T06:08:22.147Z,5.82
2023-05-23T06:10:49.084Z,5.82
2023-05-23T06:13:15.910Z,5.95
2023-05-23T06:15:46.387Z,5.75
2023-05-23T06:18:14.108Z,5.78
2023-05-23T06:20:41.359Z,6.00
2023-05-23T06:23:13.004Z,5.88
2023-05-23T06:25:40.778Z,5.78
2023-05-23T06:28:07.545Z,5.50
2023-05-23T06:30:37.563Z,5.80
2023-05-23T06:33:05.124Z,5.90
2023-05-23T06:35:31.888Z,5.40
2023-05-23T06:38:01.126Z,5.65
2023-05-23T06:40:27.832Z,5.43
2023-05-23T06:42:54.771Z,5.65
2023-05-23T06:45:35.121Z,5.15
2023-05-23T06:48:02.011Z,5.63
2023-05-23T06:50:29.852Z,5.50
2023-05-23T06:52:57.040Z,5.50
2023-05-23T06:55:24.298Z,5.57
2023-05-23T06:57:52.304Z,5.80
2023-05-23T07:00:21.066Z,5.28
2023-05-23T07:03:11.196Z,5.20
2023-05-23T07:05:41.091Z,5.20
2023-05-23T07:08:11.433Z,4.90
2023-05-23T07:10:42.026Z,5.40
2023-05-23T07:13:23.202Z,5.45
2023-05-23T07:15:50.049Z,5.18
2023-05-23T07:18:20.495Z,5.20
2023-05-23T07:20:47.502Z,5.07
2023-05-23T07:23:17.303Z,5.47
2023-05-23T07:26:01.107Z,4.82
2023-05-23T07:28:31.407Z,5.40
2023-05-23T07:30:59.225Z,5.10
2023-05-23T07:33:26.781Z,5.05
2023-05-23T07:35:58.639Z,5.30
2023-05-23T07:38:26.875Z,5.20
2023-05-23T07:41:06.787Z,5.18
2023-05-23T07:43:38.439Z,5.10
2023-05-23T07:46:05.869Z,5.05
2023-05-23T07:48:33.287Z,5.07
2023-05-23T07:51:00.361Z,4.90
2023-05-23T07:53:27.033Z,4.80
2023-05-23T07:55:54.143Z,5.25
2023-05-23T07:58:23.377Z,5.03
2023-05-23T08:00:52.758Z,5.00
2023-05-23T08:03:38.927Z,5.00
2023-05-23T08:06:11.753Z,4.95
2023-05-23T08:08:39.215Z,4.80
2023-05-23T08:11:08.208Z,5.18
2023-05-23T08:13:41.115Z,4.95
2023-05-23T08:16:28.085Z,4.90
2023-05-23T08:18:55.495Z,5.00
2023-05-23T08:21:24.153Z,4.47
2023-05-23T08:23:50.938Z,4.88
2023-05-23T08:26:17.917Z,4.43
2023-05-23T08:28:46.803Z,4.88
2023-05-23T08:31:14.012Z,4.97
2023-05-23T08:33:40.909Z,4.75
2023-05-23T08:36:07.879Z,4.68
2023-05-23T08:38:34.785Z,5.10
2023-05-23T08:41:30.986Z,5.07
2023-05-23T08:44:04.796Z,4.95
2023-05-23T08:46:43.110Z,4.78
2023-05-23T08:49:10.872Z,4.72
2023-05-23T08:51:38.837Z,5.05
2023-05-23T08:54:15.064Z,5.00
2023-05-23T08:56:43.773Z,4.70
2023-05-23T08:59:12.148Z,4.68
2023-05-23T09:01:40.103Z,4.82
2023-05-23T09:04:09.916Z,4.63
2023-05-23T09:06:48.232Z,4.72
2023-05-23T09:09:15.134Z,4.80
2023-05-23T09:11:46.188Z,5.00
2023-05-23T09:14:14.770Z,4.93
2023-05-23T09:16:46.625Z,4.78
2023-05-23T09:19:14.736Z,5.03
2023-05-23T09:21:47.465Z,4.70
2023-05-23T09:24:22.384Z,4.57
2023-05-23T09:26:49.853Z,4.70
2023-05-23T09:29:20.548Z,4.70
2023-05-23T09:31:48.041Z,4.75
2023-05-23T09:34:14.767Z,4.60
2023-05-23T09:36:44.145Z,4.65
2023-05-23T09:39:12.095Z,4.20
2023-05-23T09:41:39.210Z,4.40
2023-05-23T09:44:08.416Z,4.65
2023-05-23T09:46:41.399Z,4.50
2023-05-23T09:49:18.062Z,4.90
2023-05-23T09:52:00.844Z,4.50
2023-05-23T09:54:27.816Z,4.53
2023-05-23T09:56:57.077Z,4.85
2023-05-23T09:59:24.968Z,4.60
2023-05-23T10:01:53.111Z,4.65
2023-05-23T10:04:25.916Z,4.72
2023-05-23T10:07:00.120Z,4.70
2023-05-23T10:09:28.586Z,4.60
2023-05-23T10:12:37.573Z,5.03
2023-05-23T10:15:05.902Z,4.50
2023-05-23T10:17:51.078Z,4.63
2023-05-23T10:20:18.670Z,4.93
2023-05-23T10:22:45.872Z,4.50
2023-05-23T10:25:13.659Z,4.60
2023-05-23T10:27:40.824Z,4.35
2023-05-23T10:30:08.503Z,4.75
2023-05-23T10:32:36.413Z,4.35
2023-05-23T10:35:41.750Z,4.80
2023-05-23T10:38:30.099Z,4.40
2023-05-23T10:41:18.391Z,5.00
2023-05-23T10:43:55.895Z,4.65
2023-05-23T10:46:22.951Z,4.70
2023-05-23T10:48:57.249Z,4.57
2023-05-23T10:51:25.005Z,4.50
2023-05-23T10:53:54.618Z,4.90
2023-05-23T10:56:23.951Z,4.95
2023-05-23T10:59:00.839Z,5.00
2023-05-23T11:01:27.761Z,4.75
2023-05-23T11:03:55.908Z,4.80
2023-05-23T11:06:34.042Z,4.80
2023-05-23T11:09:12.300Z,4.60
2023-05-23T11:11:52.249Z,4.90
2023-05-23T11:14:32.403Z,5.10
2023-05-23T11:17:19.522Z,5.05
2023-05-23T11:20:17.103Z,5.00
2023-05-23T11:22:53.584Z,4.82
2023-05-23T11:25:20.536Z,5.07
2023-05-23T11:27:48.231Z,4.95
2023-05-23T11:30:17.563Z,4.82
2023-05-23T11:32:55.849Z,4.97
2023-05-23T11:35:22.808Z,4.97
2023-05-23T11:37:49.665Z,4.53
2023-05-23T11:40:40.130Z,4.90
2023-05-23T11:43:08.971Z,5.00
2023-05-23T11:45:37.152Z,4.88
2023-05-23T11:48:14.727Z,4.80
2023-05-23T11:50:48.777Z,4.78
2023-05-23T11:53:18.861Z,4.93
2023-05-23T11:55:57.783Z,5.00
2023-05-23T11:58:30.627Z,5.10
2023-05-23T12:01:08.753Z,5.30
2023-05-23T12:03:45.154Z,5.28
2023-05-23T12:06:15.962Z,4.97
2023-05-23T12:08:42.938Z,4.88
2023-05-23T12:11:09.799Z,4.70
2023-05-23T12:13:36.532Z,4.90
2023-05-23T12:16:04.856Z,5.20
2023-05-23T12:18:32.716Z,5.18
2023-05-23T12:21:06.012Z,5.38
2023-05-23T12:23:35.054Z,5.20
2023-05-23T12:26:07.082Z,5.07
2023-05-23T12:28:45.606Z,5.00
2023-05-23T12:31:19.730Z,5.40
2023-05-23T12:33:48.264Z,5.07
2023-05-23T12:36:22.512Z,4.88
2023-05-23T12:38:49.365Z,5.25
2023-05-23T12:41:17.698Z,5.60
2023-05-23T12:43:52.413Z,5.20
2023-05-23T12:46:20.591Z,5.07
2023-05-23T12:48:47.610Z,5.15
2023-05-23T12:51:14.780Z,5.18
2023-05-23T12:53:41.498Z,5.30
2023-05-23T12:56:08.434Z,5.22
2023-05-23T12:58:35.306Z,5.68
2023-05-23T13:01:02.896Z,5.53
2023-05-23T13:03:31.326Z,5.43
2023-05-23T13:05:58.657Z,5.95
2023-05-23T13:08:26.547Z,5.60
2023-05-23T13:10:53.902Z,5.40
2023-05-23T13:13:21.037Z,5.22
2023-05-23T13:15:49.638Z,5.35
2023-05-23T13:18:17.833Z,5.90
2023-05-23T13:20:44.572Z,5.65
2023-05-23T13:23:11.486Z,5.60
2023-05-23T13:25:38.386Z,5.95
2023-05-23T13:28:05.131Z,5.38
2023-05-23T13:30:31.906Z,5.30
2023-05-23T13:32:58.700Z,5.60
2023-05-23T13:35:25.693Z,5.50
2023-05-23T13:37:52.394Z,5.82
2023-05-23T13:40:20.894Z,5.82
2023-05-23T13:42:48.713Z,5.80
2023-05-23T13:45:15.834Z,5.80
2023-05-23T13:47:42.571Z,5.35
2023-05-23T13:50:09.756Z,5.13
2023-05-23T13:52:36.548Z,5.57
2023-05-23T13:55:04.742Z,5.55
2023-05-23T13:57:31.732Z,5.85
2023-05-23T13:59:58.495Z,5.70
2023-05-23T14:02:25.210Z,5.43
2023-05-23T14:04:52.047Z,5.78
2023-05-23T14:07:18.942Z,5.97
2023-05-23T14:09:45.749Z,5.55
2023-05-23T14:12:12.527Z,6.03
2023-05-23T14:14:39.327Z,5.75
2023-05-23T14:17:06.019Z,5.90
2023-05-23T14:19:32.787Z,5.90
2023-05-23T14:21:59.586Z,5.68
2023-05-23T14:24:26.323Z,5.63
2023-05-23T14:26:53.239Z,5.68
2023-05-23T14:29:19.899Z,5.60
2023-05-23T14:31:46.578Z,5.63
2023-05-23T14:34:13.573Z,5.45
2023-05-23T14:36:40.346Z,5.28
2023-05-23T14:39:10.454Z,5.53
2023-05-23T14:41:37.652Z,5.90
2023-05-23T14:44:04.641Z,5.85
2023-05-23T14:46:31.556Z,5.50
2023-05-23T14:48:58.320Z,5.55
2023-05-23T14:51:43.208Z,6.03
2023-05-23T14:54:12.098Z,5.55
2023-05-23T14:56:41.140Z,5.70
2023-05-23T14:59:08.427Z,5.70
2023-05-23T15:01:37.301Z,5.50
2023-05-23T15:04:08.055Z,5.80
2023-05-23T15:06:35.153Z,5.50
2023-05-23T15:09:02.432Z,5.68
2023-05-23T15:11:29.112Z,5.40
2023-05-23T15:13:56.017Z,5.50
2023-05-23T15:16:22.772Z,5.10
2023-05-23T15:18:49.680Z,5.20
2023-05-23T15:21:16.573Z,5.18
2023-05-23T15:23:43.305Z,5.50
2023-05-23T15:26:10.090Z,5.50
2023-05-23T15:28:36.852Z,5.35
2023-05-23T15:31:03.669Z,5.43
2023-05-23T15:33:30.420Z,5.32
2023-05-23T15:35:58.903Z,5.32
2023-05-23T15:38:25.850Z,4.80
2023-05-23T15:40:54.712Z,4.78
2023-05-23T15:43:21.510Z,5.13
2023-05-23T15:45:49.959Z,5.70
2023-05-23T15:48:16.836Z,5.10
2023-05-23T15:50:44.150Z,5.18
2023-05-23T15:53:11.155Z,4.95
2023-05-23T15:55:40.583Z,4.68
2023-05-23T15:58:09.642Z,4.88
2023-05-23T16:00:36.688Z,5.20
2023-05-23T16:03:03.526Z,4.78
2023-05-23T16:05:30.374Z,5.13
2023-05-23T16:07:57.174Z,4.80
2023-05-23T16:10:24.795Z,5.28
2023-05-23T16:12:51.661Z,4.90
2023-05-23T16:15:18.682Z,4.97
2023-05-23T16:17:45.569Z,5.00
2023-05-23T16:20:12.725Z,4.68
2023-05-23T16:22:41.024Z,4.82
2023-05-23T16:25:09.314Z,4.95
2023-05-23T16:27:36.095Z,4.85
2023-05-23T16:30:03.259Z,5.10
2023-05-23T16:32:30.113Z,4.85
2023-05-23T16:34:56.852Z,4.85
2023-05-23T16:37:23.693Z,4.78
2023-05-23T16:39:50.773Z,5.10
2023-05-23T16:42:18.008Z,4.43
2023-05-23T16:44:45.582Z,5.25
2023-05-23T16:47:12.454Z,5.30
2023-05-23T16:49:39.158Z,5.20
2023-05-23T16:52:06.069Z,5.10
2023-05-23T16:54:32.759Z,5.10
2023-05-23T16:57:02.046Z,5.18
2023-05-23T16:59:29.969Z,5.13
2023-05-23T17:01:57.069Z,5.13
2023-05-23T17:04:24.236Z,4.97
2023-05-23T17:06:51.479Z,5.00
2023-05-23T17:09:18.316Z,5.00
2023-05-23T17:11:45.447Z,5.20
2023-05-23T17:14:12.512Z,5.00
2023-05-23T17:16:39.394Z,4.93
2023-05-23T17:19:06.391Z,5.03
2023-05-23T17:21:33.591Z,4.90
2023-05-23T17:24:00.282Z,4.70
2023-05-23T17:26:27.506Z,5.35
2023-05-23T17:28:54.211Z,4.60
2023-05-23T17:31:21.506Z,5.20
2023-05-23T17:33:48.306Z,5.25
2023-05-23T17:36:16.108Z,5.05
2023-05-23T17:38:42.796Z,4.70
2023-05-23T17:41:09.601Z,5.00
2023-05-23T17:43:36.307Z,5.35
2023-05-23T17:46:03.082Z,4.95
2023-05-23T17:48:45.683Z,5.15
2023-05-23T17:51:13.935Z,4.45
2023-05-23T17:53:41.802Z,4.75
2023-05-23T17:56:11.442Z,4.75
2023-05-23T17:58:39.323Z,5.30
2023-05-23T18:01:07.951Z,5.05
2023-05-23T18:03:34.709Z,5.32
2023-05-23T18:06:01.541Z,5.10
2023-05-23T18:08:28.266Z,5.30
2023-05-23T18:10:55.482Z,4.90
2023-05-23T18:13:22.467Z,4.65
2023-05-23T18:15:49.325Z,4.90
2023-05-23T18:18:19.086Z,4.90
2023-05-23T18:20:47.291Z,5.20
2023-05-23T18:23:14.028Z,4.88
2023-05-23T18:25:40.733Z,5.07
2023-05-23T18:28:07.474Z,5.15
2023-05-23T18:30:34.288Z,4.80
2023-05-23T18:33:01.308Z,5.00
2023-05-23T18:35:28.193Z,5.07
2023-05-23T18:37:54.976Z,5.40
2023-05-23T18:40:23.937Z,4.93
2023-05-23T18:42:50.880Z,4.78
2023-05-23T18:45:17.806Z,4.80
2023-05-23T18:47:44.860Z,4.88
2023-05-23T18:50:12.983Z,4.95
2023-05-23T18:52:40.114Z,4.63
2023-05-23T18:55:07.728Z,4.97
2023-05-23T18:57:34.481Z,4.80
2023-05-23T19:00:02.852Z,4.72
2023-05-23T19:02:29.734Z,5.07
2023-05-23T19:04:56.500Z,5.13
2023-05-23T19:07:23.252Z,4.70
2023-05-23T19:09:49.968Z,5.32
2023-05-23T19:12:16.782Z,5.18
2023-05-23T19:14:43.604Z,5.10
2023-05-23T19:17:10.492Z,5.07
2023-05-23T19:19:37.630Z,5.00
2023-05-23T19:22:04.742Z,5.20
2023-05-23T19:24:32.165Z,4.82
2023-05-23T19:26:58.955Z,5.10
2023-05-23T19:29:26.736Z,4.97
2023-05-23T19:31:54.849Z,4.47
2023-05-23T19:34:22.184Z,4.97
2023-05-23T19:36:49.105Z,5.13
2023-05-23T19:39:16.018Z,5.00
2023-05-23T19:41:42.719Z,4.82
2023-05-23T19:44:09.806Z,4.82
2023-05-23T19:46:36.691Z,4.82
2023-05-23T19:49:03.682Z,4.90
2023-05-23T19:51:30.446Z,4.65
2023-05-23T19:53:57.369Z,4.85
2023-05-23T19:56:25.294Z,4.78
2023-05-23T19:58:52.252Z,5.35
2023-05-23T20:01:19.102Z,5.00
2023-05-23T20:03:45.885Z,5.03
2023-05-23T20:06:12.922Z,4.80
2023-05-23T20:08:39.649Z,5.18
2023-05-23T20:11:06.394Z,4.68
2023-05-23T20:13:33.099Z,4.75
2023-05-23T20:16:00.190Z,5.00
2023-05-23T20:18:26.983Z,5.05
2023-05-23T20:20:53.886Z,4.68
2023-05-23T20:23:20.665Z,4.53
2023-05-23T20:25:47.645Z,4.90
2023-05-23T20:28:14.472Z,4.97
2023-05-23T20:30:41.398Z,4.80
2023-05-23T20:33:08.346Z,5.07
2023-05-23T20:35:35.171Z,4.80
2023-05-23T20:38:01.857Z,5.00
2023-05-23T20:40:29.854Z,5.05
2023-05-23T20:43:00.663Z,4.95
2023-05-23T20:45:27.841Z,5.32
2023-05-23T20:47:55.508Z,5.20
2023-05-23T20:50:22.683Z,4.75
2023-05-23T20:52:49.520Z,4.93
2023-05-23T20:55:16.297Z,4.82
2023-05-23T20:57:43.352Z,4.90
2023-05-23T21:00:13.904Z,5.20
2023-05-23T21:02:41.375Z,4.80
2023-05-23T21:05:09.618Z,4.93
2023-05-23T21:07:36.454Z,4.90
2023-05-23T21:10:03.760Z,4.90
2023-05-23T21:12:30.584Z,5.05
2023-05-23T21:14:57.316Z,4.68
2023-05-23T21:17:24.470Z,4.53
2023-05-23T21:19:51.495Z,4.82
2023-05-23T21:22:18.233Z,5.15
2023-05-23T21:24:44.976Z,5.15
2023-05-23T21:27:11.970Z,5.22
2023-05-23T21:29:38.705Z,4.95
2023-05-23T21:32:05.466Z,4.90
2023-05-23T21:34:32.273Z,5.07
2023-05-23T21:36:59.074Z,5.18
2023-05-23T21:39:28.819Z,5.20
2023-05-23T21:42:00.481Z,5.20
2023-05-23T21:44:27.306Z,4.93
2023-05-23T21:46:54.059Z,4.90
2023-05-23T21:49:20.842Z,5.30
2023-05-23T21:51:47.615Z,5.32
2023-05-23T21:54:14.422Z,4.93
2023-05-23T21:56:41.225Z,4.97
2023-05-23T21:59:08.354Z,4.78
2023-05-23T22:01:35.680Z,5.28
2023-05-23T22:04:02.505Z,5.30
2023-05-23T22:06:29.263Z,5.13
2023-05-23T22:08:56.021Z,5.00
2023-05-23T22:11:22.864Z,5.18
2023-05-23T22:13:49.560Z,5.38
2023-05-23T22:16:16.357Z,5.25
2023-05-23T22:18:51.509Z,5.00
2023-05-23T22:21:18.927Z,5.53
2023-05-23T22:23:45.922Z,5.47
2023-05-23T22:26:12.953Z,5.47
2023-05-23T22:28:39.768Z,5.32
2023-05-23T22:31:06.740Z,5.28
2023-05-23T22:33:33.586Z,5.45
2023-05-23T22:36:00.387Z,5.20
2023-05-23T22:38:27.174Z,4.80
2023-05-23T22:40:53.978Z,5.28
2023-05-23T22:43:21.876Z,5.22
2023-05-23T22:45:50.236Z,5.10
2023-05-23T22:48:19.383Z,5.22
2023-05-23T22:50:46.884Z,4.93
2023-05-23T22:53:15.417Z,5.00
2023-05-23T22:55:42.518Z,5.05
2023-05-23T22:58:09.252Z,5.10
2023-05-23T23:00:36.709Z,5.07
2023-05-23T23:03:04.181Z,5.22
2023-05-23T23:05:31.171Z,4.80
2023-05-23T23:07:57.898Z,5.05
2023-05-23T23:10:24.713Z,5.18
2023-05-23T23:12:51.448Z,4.75
2023-05-23T23:15:18.267Z,5.05
2023-05-23T23:17:45.211Z,4.40
2023-05-23T23:20:12.853Z,5.05
2023-05-23T23:22:39.822Z,4.82
2023-05-23T23:25:10.798Z,4.88
2023-05-23T23:27:38.347Z,4.35
2023-05-23T23:30:06.651Z,4.60
2023-05-23T23:32:34.346Z,4.45
2023-05-23T23:35:01.528Z,4.75
2023-05-23T23:37:28.333Z,4.40
2023-05-23T23:39:55.084Z,4.70
2023-05-23T23:42:21.826Z,4.18
2023-05-23T23:44:48.748Z,4.15
2023-05-23T23:47:15.498Z,4.30
2023-05-23T23:49:42.462Z,4.28
2023-05-23T23:52:09.499Z,3.92
2023-05-23T23:54:36.377Z,3.92
2023-05-23T23:57:03.140Z,3.90
2023-05-23T23:59:29.964Z,3.80
